sensor_id;sensor_type;location;lat;lon;timestamp;pressure;altitude;pressure_sealevel;temperature;humidity
39773;BME280;25451;51.960;6.250;2023-11-19T00:00:59;100671.69;;;12.56;89.73
39773;BME280;25451;51.960;6.250;2023-11-19T00:03:25;100667.81;;;12.57;89.83
39773;BME280;25451;51.960;6.250;2023-11-19T00:05:50;100654.56;;;12.59;89.64
39773;BME280;25451;51.960;6.250;2023-11-19T00:08:15;100665.13;;;12.62;90.03
39773;BME280;25451;51.960;6.250;2023-11-19T00:10:41;100660.16;;;12.64;89.89
39773;BME280;25451;51.960;6.250;2023-11-19T00:13:06;100657.13;;;12.66;89.97
39773;BME280;25451;51.960;6.250;2023-11-19T00:15:32;100647.47;;;12.68;89.76
39773;BME280;25451;51.960;6.250;2023-11-19T00:17:57;100648.03;;;12.70;89.95
39773;BME280;25451;51.960;6.250;2023-11-19T00:20:22;100638.03;;;12.69;89.75
39773;BME280;25451;51.960;6.250;2023-11-19T00:22:48;100637.25;;;12.74;90.21
39773;BME280;25451;51.960;6.250;2023-11-19T00:25:19;100633.13;;;12.76;89.81
39773;BME280;25451;51.960;6.250;2023-11-19T00:27:44;100638.97;;;12.80;90.20
39773;BME280;25451;51.960;6.250;2023-11-19T00:30:10;100634.28;;;12.80;90.08
39773;BME280;25451;51.960;6.250;2023-11-19T00:32:36;100614.59;;;12.82;90.21
39773;BME280;25451;51.960;6.250;2023-11-19T00:35:04;100625.13;;;12.85;89.94
39773;BME280;25451;51.960;6.250;2023-11-19T00:37:29;100618.50;;;12.86;90.02
39773;BME280;25451;51.960;6.250;2023-11-19T00:39:54;100612.72;;;12.87;90.00
39773;BME280;25451;51.960;6.250;2023-11-19T00:42:21;100616.63;;;12.91;90.25
39773;BME280;25451;51.960;6.250;2023-11-19T00:44:47;100613.84;;;12.91;90.25
39773;BME280;25451;51.960;6.250;2023-11-19T00:47:12;100622.72;;;12.93;90.31
39773;BME280;25451;51.960;6.250;2023-11-19T00:49:37;100629.41;;;12.97;90.29
39773;BME280;25451;51.960;6.250;2023-11-19T00:52:03;100623.06;;;12.97;90.10
39773;BME280;25451;51.960;6.250;2023-11-19T00:54:28;100605.03;;;12.99;90.07
39773;BME280;25451;51.960;6.250;2023-11-19T00:56:54;100608.38;;;13.01;90.33
39773;BME280;25451;51.960;6.250;2023-11-19T00:59:19;100618.38;;;13.02;90.31
39773;BME280;25451;51.960;6.250;2023-11-19T01:01:45;100612.59;;;13.04;90.42
39773;BME280;25451;51.960;6.250;2023-11-19T01:04:10;100615.66;;;13.07;90.20
39773;BME280;25451;51.960;6.250;2023-11-19T01:06:36;100601.81;;;13.07;90.17
39773;BME280;25451;51.960;6.250;2023-11-19T01:09:01;100595.19;;;13.08;90.24
39773;BME280;25451;51.960;6.250;2023-11-19T01:11:27;100586.31;;;13.11;89.80
39773;BME280;25451;51.960;6.250;2023-11-19T01:13:53;100575.22;;;13.11;90.49
39773;BME280;25451;51.960;6.250;2023-11-19T01:16:19;100565.84;;;13.12;90.27
39773;BME280;25451;51.960;6.250;2023-11-19T01:18:48;100579.41;;;13.14;90.28
39773;BME280;25451;51.960;6.250;2023-11-19T01:21:14;100573.03;;;13.13;90.38
39773;BME280;25451;51.960;6.250;2023-11-19T01:23:40;100580.81;;;13.16;90.65
39773;BME280;25451;51.960;6.250;2023-11-19T01:26:08;100584.69;;;13.15;90.62
39773;BME280;25451;51.960;6.250;2023-11-19T01:28:35;100584.16;;;13.18;90.46
39773;BME280;25451;51.960;6.250;2023-11-19T01:31:00;100588.00;;;13.17;90.63
39773;BME280;25451;51.960;6.250;2023-11-19T01:33:25;100587.50;;;13.20;90.32
39773;BME280;25451;51.960;6.250;2023-11-19T01:35:50;100592.19;;;13.20;90.59
39773;BME280;25451;51.960;6.250;2023-11-19T01:38:16;100595.81;;;13.20;90.51
39773;BME280;25451;51.960;6.250;2023-11-19T01:40:41;100606.91;;;13.20;90.69
39773;BME280;25451;51.960;6.250;2023-11-19T01:43:07;100600.22;;;13.21;90.50
39773;BME280;25451;51.960;6.250;2023-11-19T01:45:36;100600.81;;;13.23;90.51
39773;BME280;25451;51.960;6.250;2023-11-19T01:48:03;100595.25;;;13.23;90.52
39773;BME280;25451;51.960;6.250;2023-11-19T01:50:32;100580.59;;;13.23;90.51
39773;BME280;25451;51.960;6.250;2023-11-19T01:52:58;100583.09;;;13.24;90.57
39773;BME280;25451;51.960;6.250;2023-11-19T01:55:25;100565.91;;;13.27;90.93
39773;BME280;25451;51.960;6.250;2023-11-19T01:57:55;100561.47;;;13.26;90.83
39773;BME280;25451;51.960;6.250;2023-11-19T02:00:24;100564.25;;;13.26;90.94
39773;BME280;25451;51.960;6.250;2023-11-19T02:02:50;100549.25;;;13.22;90.90
39773;BME280;25451;51.960;6.250;2023-11-19T02:05:17;100555.94;;;13.26;90.96
39773;BME280;25451;51.960;6.250;2023-11-19T02:07:42;100564.81;;;13.28;90.57
39773;BME280;25451;51.960;6.250;2023-11-19T02:10:08;100569.00;;;13.31;90.93
39773;BME280;25451;51.960;6.250;2023-11-19T02:12:39;100562.59;;;13.30;90.75
39773;BME280;25451;51.960;6.250;2023-11-19T02:15:08;100558.75;;;13.32;90.64
39773;BME280;25451;51.960;6.250;2023-11-19T02:17:34;100555.97;;;13.32;90.62
39773;BME280;25451;51.960;6.250;2023-11-19T02:20:06;100554.00;;;13.32;90.79
39773;BME280;25451;51.960;6.250;2023-11-19T02:22:34;100539.59;;;13.30;90.77
39773;BME280;25451;51.960;6.250;2023-11-19T02:25:04;100539.06;;;13.33;90.94
39773;BME280;25451;51.960;6.250;2023-11-19T02:27:53;100552.09;;;13.32;90.65
39773;BME280;25451;51.960;6.250;2023-11-19T02:30:21;100544.88;;;13.32;91.07
39773;BME280;25451;51.960;6.250;2023-11-19T02:32:46;100549.31;;;13.32;91.04
39773;BME280;25451;51.960;6.250;2023-11-19T02:35:13;100543.22;;;13.30;90.62
39773;BME280;25451;51.960;6.250;2023-11-19T02:37:38;100545.97;;;13.30;90.74
39773;BME280;25451;51.960;6.250;2023-11-19T02:40:04;100554.84;;;13.32;91.05
39773;BME280;25451;51.960;6.250;2023-11-19T02:42:30;100547.66;;;13.32;90.97
39773;BME280;25451;51.960;6.250;2023-11-19T02:44:56;100540.16;;;13.32;90.95
39773;BME280;25451;51.960;6.250;2023-11-19T02:47:22;100546.81;;;13.31;91.13
39773;BME280;25451;51.960;6.250;2023-11-19T02:49:49;100552.38;;;13.31;90.75
39773;BME280;25451;51.960;6.250;2023-11-19T02:52:14;100547.91;;;13.30;91.07
39773;BME280;25451;51.960;6.250;2023-11-19T02:54:40;100544.06;;;13.31;90.95
39773;BME280;25451;51.960;6.250;2023-11-19T02:57:06;100552.59;;;13.29;91.08
39773;BME280;25451;51.960;6.250;2023-11-19T02:59:38;100560.94;;;13.29;91.17
39773;BME280;25451;51.960;6.250;2023-11-19T03:02:08;100555.38;;;13.29;90.83
39773;BME280;25451;51.960;6.250;2023-11-19T03:04:37;100555.38;;;13.29;91.20
39773;BME280;25451;51.960;6.250;2023-11-19T03:07:06;100556.22;;;13.30;91.01
39773;BME280;25451;51.960;6.250;2023-11-19T03:09:34;100550.97;;;13.28;91.24
39773;BME280;25451;51.960;6.250;2023-11-19T03:12:01;100546.25;;;13.29;91.14
39773;BME280;25451;51.960;6.250;2023-11-19T03:14:26;100540.38;;;13.25;90.85
39773;BME280;25451;51.960;6.250;2023-11-19T03:16:52;100537.38;;;13.27;91.03
39773;BME280;25451;51.960;6.250;2023-11-19T03:19:17;100551.22;;;13.27;91.13
39773;BME280;25451;51.960;6.250;2023-11-19T03:21:43;100548.72;;;13.25;90.99
39773;BME280;25451;51.960;6.250;2023-11-19T03:24:10;100542.88;;;13.22;91.24
39773;BME280;25451;51.960;6.250;2023-11-19T03:26:35;100549.81;;;13.24;91.04
39773;BME280;25451;51.960;6.250;2023-11-19T03:29:00;100550.09;;;13.23;90.91
39773;BME280;25451;51.960;6.250;2023-11-19T03:31:26;100549.53;;;13.21;90.91
39773;BME280;25451;51.960;6.250;2023-11-19T03:33:51;100557.84;;;13.21;91.00
39773;BME280;25451;51.960;6.250;2023-11-19T03:36:17;100549.22;;;13.17;91.17
39773;BME280;25451;51.960;6.250;2023-11-19T03:38:42;100566.69;;;13.18;91.07
39773;BME280;25451;51.960;6.250;2023-11-19T03:41:14;100553.69;;;13.18;91.07
39773;BME280;25451;51.960;6.250;2023-11-19T03:43:40;100559.75;;;13.15;91.01
39773;BME280;25451;51.960;6.250;2023-11-19T03:46:21;100553.38;;;13.15;90.99
39773;BME280;25451;51.960;6.250;2023-11-19T03:48:47;100556.41;;;13.13;91.16
39773;BME280;25451;51.960;6.250;2023-11-19T03:51:13;100550.28;;;13.11;90.96
39773;BME280;25451;51.960;6.250;2023-11-19T03:53:44;100565.25;;;13.10;91.14
39773;BME280;25451;51.960;6.250;2023-11-19T03:56:11;100549.72;;;13.09;90.87
39773;BME280;25451;51.960;6.250;2023-11-19T03:58:37;100565.53;;;13.09;90.86
39773;BME280;25451;51.960;6.250;2023-11-19T04:01:04;100555.81;;;13.06;90.79
39773;BME280;25451;51.960;6.250;2023-11-19T04:03:29;100556.31;;;13.03;90.87
39773;BME280;25451;51.960;6.250;2023-11-19T04:05:55;100561.03;;;13.03;91.01
39773;BME280;25451;51.960;6.250;2023-11-19T04:08:20;100566.00;;;13.01;90.92
39773;BME280;25451;51.960;6.250;2023-11-19T04:10:46;100565.69;;;12.97;90.94
39773;BME280;25451;51.960;6.250;2023-11-19T04:13:11;100561.53;;;12.95;90.71
39773;BME280;25451;51.960;6.250;2023-11-19T04:15:37;100560.97;;;12.93;90.86
39773;BME280;25451;51.960;6.250;2023-11-19T04:18:02;100560.41;;;12.91;90.80
39773;BME280;25451;51.960;6.250;2023-11-19T04:20:28;100553.69;;;12.87;90.69
39773;BME280;25451;51.960;6.250;2023-11-19T04:22:53;100548.72;;;12.84;90.70
39773;BME280;25451;51.960;6.250;2023-11-19T04:25:19;100546.44;;;12.81;90.85
39773;BME280;25451;51.960;6.250;2023-11-19T04:27:44;100561.63;;;12.73;90.75
39773;BME280;25451;51.960;6.250;2023-11-19T04:30:10;100569.38;;;12.71;90.89
39773;BME280;25451;51.960;6.250;2023-11-19T04:32:36;100564.06;;;12.65;91.06
39773;BME280;25451;51.960;6.250;2023-11-19T04:35:01;100569.88;;;12.63;90.40
39773;BME280;25451;51.960;6.250;2023-11-19T04:37:26;100578.72;;;12.60;90.51
39773;BME280;25451;51.960;6.250;2023-11-19T04:39:52;100565.38;;;12.57;90.54
39773;BME280;25451;51.960;6.250;2023-11-19T04:42:17;100563.69;;;12.51;90.77
39773;BME280;25451;51.960;6.250;2023-11-19T04:44:43;100568.63;;;12.49;90.46
39773;BME280;25451;51.960;6.250;2023-11-19T04:47:08;100582.19;;;12.45;90.62
39773;BME280;25451;51.960;6.250;2023-11-19T04:49:40;100579.34;;;12.40;90.44
39773;BME280;25451;51.960;6.250;2023-11-19T04:52:08;100580.69;;;12.38;90.26
39773;BME280;25451;51.960;6.250;2023-11-19T04:54:33;100556.59;;;12.33;90.53
39773;BME280;25451;51.960;6.250;2023-11-19T04:56:58;100566.53;;;12.29;90.56
39773;BME280;25451;51.960;6.250;2023-11-19T04:59:24;100567.88;;;12.27;90.39
39773;BME280;25451;51.960;6.250;2023-11-19T05:01:49;100565.06;;;12.22;90.68
39773;BME280;25451;51.960;6.250;2023-11-19T05:04:15;100565.00;;;12.17;90.63
39773;BME280;25451;51.960;6.250;2023-11-19T05:06:41;100576.66;;;12.19;90.64
39773;BME280;25451;51.960;6.250;2023-11-19T05:09:06;100587.41;;;12.15;90.55
39773;BME280;25451;51.960;6.250;2023-11-19T05:11:33;100589.03;;;12.11;90.32
39773;BME280;25451;51.960;6.250;2023-11-19T05:13:59;100584.84;;;12.09;90.15
39773;BME280;25451;51.960;6.250;2023-11-19T05:16:25;100582.59;;;12.06;90.59
39773;BME280;25451;51.960;6.250;2023-11-19T05:18:50;100577.84;;;12.01;90.46
39773;BME280;25451;51.960;6.250;2023-11-19T05:21:15;100582.78;;;11.99;90.35
39773;BME280;25451;51.960;6.250;2023-11-19T05:23:42;100579.44;;;11.97;90.16
39773;BME280;25451;51.960;6.250;2023-11-19T05:26:07;100570.84;;;11.94;90.16
39773;BME280;25451;51.960;6.250;2023-11-19T05:28:33;100573.31;;;11.90;90.24
39773;BME280;25451;51.960;6.250;2023-11-19T05:30:59;100583.25;;;11.91;90.33
39773;BME280;25451;51.960;6.250;2023-11-19T05:33:24;100594.84;;;11.88;90.36
39773;BME280;25451;51.960;6.250;2023-11-19T05:35:50;100585.97;;;11.86;90.35
39773;BME280;25451;51.960;6.250;2023-11-19T05:38:15;100589.00;;;11.85;90.29
39773;BME280;25451;51.960;6.250;2023-11-19T05:40:43;100580.63;;;11.80;90.19
39773;BME280;25451;51.960;6.250;2023-11-19T05:43:09;100591.13;;;11.78;89.80
39773;BME280;25451;51.960;6.250;2023-11-19T05:45:34;100586.72;;;11.77;89.96
39773;BME280;25451;51.960;6.250;2023-11-19T05:47:59;100595.81;;;11.77;90.03
39773;BME280;25451;51.960;6.250;2023-11-19T05:50:24;100604.94;;;11.78;90.31
39773;BME280;25451;51.960;6.250;2023-11-19T05:52:50;100594.16;;;11.76;90.28
39773;BME280;25451;51.960;6.250;2023-11-19T05:55:15;100589.69;;;11.75;90.07
39773;BME280;25451;51.960;6.250;2023-11-19T05:57:41;100599.94;;;11.75;90.12
39773;BME280;25451;51.960;6.250;2023-11-19T06:00:07;100603.28;;;11.77;90.19
39773;BME280;25451;51.960;6.250;2023-11-19T06:02:42;100596.91;;;11.76;90.26
39773;BME280;25451;51.960;6.250;2023-11-19T06:05:08;100580.84;;;11.73;89.96
39773;BME280;25451;51.960;6.250;2023-11-19T06:07:34;100589.47;;;11.77;89.69
39773;BME280;25451;51.960;6.250;2023-11-19T06:10:01;100585.53;;;11.73;89.90
39773;BME280;25451;51.960;6.250;2023-11-19T06:12:26;100582.22;;;11.71;89.98
39773;BME280;25451;51.960;6.250;2023-11-19T06:14:52;100584.44;;;11.74;89.88
39773;BME280;25451;51.960;6.250;2023-11-19T06:17:18;100594.91;;;11.72;89.86
39773;BME280;25451;51.960;6.250;2023-11-19T06:19:43;100603.22;;;11.72;89.94
39773;BME280;25451;51.960;6.250;2023-11-19T06:22:08;100596.25;;;11.69;90.01
39773;BME280;25451;51.960;6.250;2023-11-19T06:24:33;100593.50;;;11.69;89.85
39773;BME280;25451;51.960;6.250;2023-11-19T06:26:59;100598.22;;;11.69;89.47
39773;BME280;25451;51.960;6.250;2023-11-19T06:29:24;100614.81;;;11.69;89.74
39773;BME280;25451;51.960;6.250;2023-11-19T06:31:50;100599.28;;;11.68;89.74
39773;BME280;25451;51.960;6.250;2023-11-19T06:34:15;100596.53;;;11.68;89.45
39773;BME280;25451;51.960;6.250;2023-11-19T06:36:41;100595.69;;;11.67;89.80
39773;BME280;25451;51.960;6.250;2023-11-19T06:39:07;100601.44;;;11.65;89.59
39773;BME280;25451;51.960;6.250;2023-11-19T06:41:33;100609.16;;;11.63;89.46
39773;BME280;25451;51.960;6.250;2023-11-19T06:43:59;100619.38;;;11.63;89.83
39773;BME280;25451;51.960;6.250;2023-11-19T06:46:25;100612.19;;;11.62;89.52
39773;BME280;25451;51.960;6.250;2023-11-19T06:48:50;100608.00;;;11.59;89.71
39773;BME280;25451;51.960;6.250;2023-11-19T06:51:15;100612.97;;;11.57;89.56
39773;BME280;25451;51.960;6.250;2023-11-19T06:53:42;100617.38;;;11.58;89.55
39773;BME280;25451;51.960;6.250;2023-11-19T06:56:22;100619.81;;;11.55;89.59
39773;BME280;25451;51.960;6.250;2023-11-19T06:58:48;100620.66;;;11.55;89.62
39773;BME280;25451;51.960;6.250;2023-11-19T07:01:15;100631.16;;;11.53;89.43
39773;BME280;25451;51.960;6.250;2023-11-19T07:03:40;100628.66;;;11.52;89.46
39773;BME280;25451;51.960;6.250;2023-11-19T07:06:05;100630.81;;;11.50;89.50
39773;BME280;25451;51.960;6.250;2023-11-19T07:08:31;100642.69;;;11.50;89.35
39773;BME280;25451;51.960;6.250;2023-11-19T07:10:56;100646.56;;;11.49;89.66
39773;BME280;25451;51.960;6.250;2023-11-19T07:13:21;100660.97;;;11.51;89.44
39773;BME280;25451;51.960;6.250;2023-11-19T07:15:47;100646.56;;;11.49;89.26
39773;BME280;25451;51.960;6.250;2023-11-19T07:18:12;100654.34;;;11.52;89.46
39773;BME280;25451;51.960;6.250;2023-11-19T07:20:37;100659.28;;;11.50;89.48
39773;BME280;25451;51.960;6.250;2023-11-19T07:23:03;100662.41;;;11.54;89.31
39773;BME280;25451;51.960;6.250;2023-11-19T07:25:29;100664.91;;;11.55;89.42
39773;BME280;25451;51.960;6.250;2023-11-19T07:27:54;100662.13;;;11.55;89.47
39773;BME280;25451;51.960;6.250;2023-11-19T07:30:19;100672.06;;;11.56;89.37
39773;BME280;25451;51.960;6.250;2023-11-19T07:32:45;100669.31;;;11.56;89.37
39773;BME280;25451;51.960;6.250;2023-11-19T07:35:10;100667.66;;;11.55;89.09
39773;BME280;25451;51.960;6.250;2023-11-19T07:37:35;100677.38;;;11.58;88.96
39773;BME280;25451;51.960;6.250;2023-11-19T07:40:01;100680.94;;;11.58;89.32
39773;BME280;25451;51.960;6.250;2023-11-19T07:42:26;100675.94;;;11.55;88.86
39773;BME280;25451;51.960;6.250;2023-11-19T07:44:52;100684.34;;;11.60;89.25
39773;BME280;25451;51.960;6.250;2023-11-19T07:47:19;100687.31;;;11.59;89.27
39773;BME280;25451;51.960;6.250;2023-11-19T07:49:44;100688.16;;;11.59;89.19
39773;BME280;25451;51.960;6.250;2023-11-19T07:52:10;100691.53;;;11.61;89.22
39773;BME280;25451;51.960;6.250;2023-11-19T07:54:35;100699.22;;;11.59;89.04
39773;BME280;25451;51.960;6.250;2023-11-19T07:57:00;100691.53;;;11.61;89.16
39773;BME280;25451;51.960;6.250;2023-11-19T07:59:26;100700.38;;;11.63;89.08
39773;BME280;25451;51.960;6.250;2023-11-19T08:01:51;100684.66;;;11.64;88.90
39773;BME280;25451;51.960;6.250;2023-11-19T08:04:17;100696.56;;;11.64;89.03
39773;BME280;25451;51.960;6.250;2023-11-19T08:06:42;100692.69;;;11.65;89.11
39773;BME280;25451;51.960;6.250;2023-11-19T08:09:07;100701.84;;;11.66;89.14
39773;BME280;25451;51.960;6.250;2023-11-19T08:11:39;100697.75;;;11.69;88.87
39773;BME280;25451;51.960;6.250;2023-11-19T08:14:04;100696.63;;;11.70;88.91
39773;BME280;25451;51.960;6.250;2023-11-19T08:16:29;100689.19;;;11.70;88.76
39773;BME280;25451;51.960;6.250;2023-11-19T08:18:55;100682.31;;;11.73;88.79
39773;BME280;25451;51.960;6.250;2023-11-19T08:21:22;100679.56;;;11.73;89.12
39773;BME280;25451;51.960;6.250;2023-11-19T08:23:47;100682.91;;;11.75;89.05
39773;BME280;25451;51.960;6.250;2023-11-19T08:26:14;100685.13;;;11.78;88.98
39773;BME280;25451;51.960;6.250;2023-11-19T08:28:40;100685.72;;;11.80;88.87
39773;BME280;25451;51.960;6.250;2023-11-19T08:31:05;100690.97;;;11.81;88.65
39773;BME280;25451;51.960;6.250;2023-11-19T08:33:31;100691.56;;;11.83;88.64
39773;BME280;25451;51.960;6.250;2023-11-19T08:35:56;100687.44;;;11.86;88.70
39773;BME280;25451;51.960;6.250;2023-11-19T08:38:23;100678.09;;;11.87;88.78
39773;BME280;25451;51.960;6.250;2023-11-19T08:40:49;100673.13;;;11.89;88.55
39773;BME280;25451;51.960;6.250;2023-11-19T08:43:14;100679.81;;;11.93;88.59
39773;BME280;25451;51.960;6.250;2023-11-19T08:45:39;100688.69;;;11.95;88.99
39773;BME280;25451;51.960;6.250;2023-11-19T08:48:05;100675.19;;;11.98;88.57
39773;BME280;25451;51.960;6.250;2023-11-19T08:50:30;100685.97;;;12.00;88.84
39773;BME280;25451;51.960;6.250;2023-11-19T08:52:55;100682.94;;;12.01;88.63
39773;BME280;25451;51.960;6.250;2023-11-19T08:55:21;100678.03;;;12.03;88.47
39773;BME280;25451;51.960;6.250;2023-11-19T08:57:46;100689.91;;;12.04;88.69
39773;BME280;25451;51.960;6.250;2023-11-19T09:00:12;100684.72;;;12.07;88.73
39773;BME280;25451;51.960;6.250;2023-11-19T09:02:39;100692.16;;;12.07;88.41
39773;BME280;25451;51.960;6.250;2023-11-19T09:05:05;100693.31;;;12.11;88.40
39773;BME280;25451;51.960;6.250;2023-11-19T09:07:32;100694.16;;;12.11;88.84
39773;BME280;25451;51.960;6.250;2023-11-19T09:09:58;100690.28;;;12.12;88.76
39773;BME280;25451;51.960;6.250;2023-11-19T09:12:23;100690.28;;;12.12;88.75
39773;BME280;25451;51.960;6.250;2023-11-19T09:14:49;100687.53;;;12.12;88.69
39773;BME280;25451;51.960;6.250;2023-11-19T09:17:14;100691.72;;;12.15;88.40
39773;BME280;25451;51.960;6.250;2023-11-19T09:19:40;100682.84;;;12.13;88.59
39773;BME280;25451;51.960;6.250;2023-11-19T09:22:05;100679.53;;;12.16;88.54
39773;BME280;25451;51.960;6.250;2023-11-19T09:24:31;100689.25;;;12.18;88.70
39773;BME280;25451;51.960;6.250;2023-11-19T09:26:56;100691.53;;;12.21;88.75
39773;BME280;25451;51.960;6.250;2023-11-19T09:29:22;100692.34;;;12.22;88.68
39773;BME280;25451;51.960;6.250;2023-11-19T09:31:47;100696.53;;;12.24;88.44
39773;BME280;25451;51.960;6.250;2023-11-19T09:34:12;100689.91;;;12.25;88.71
39773;BME280;25451;51.960;6.250;2023-11-19T09:36:38;100701.56;;;12.27;88.22
39773;BME280;25451;51.960;6.250;2023-11-19T09:39:04;100696.03;;;12.27;88.22
39773;BME280;25451;51.960;6.250;2023-11-19T09:41:31;100695.75;;;12.29;88.40
39773;BME280;25451;51.960;6.250;2023-11-19T09:43:57;100697.69;;;12.28;88.44
39773;BME280;25451;51.960;6.250;2023-11-19T09:46:22;100692.97;;;12.29;88.29
39773;BME280;25451;51.960;6.250;2023-11-19T09:48:52;100696.34;;;12.31;88.43
39773;BME280;25451;51.960;6.250;2023-11-19T09:51:19;100691.88;;;12.30;88.18
39773;BME280;25451;51.960;6.250;2023-11-19T09:53:45;100700.53;;;12.33;88.13
39773;BME280;25451;51.960;6.250;2023-11-19T09:56:11;100695.78;;;12.34;88.04
39773;BME280;25451;51.960;6.250;2023-11-19T09:58:37;100691.94;;;12.35;88.32
39773;BME280;25451;51.960;6.250;2023-11-19T10:01:03;100691.41;;;12.38;88.34
39773;BME280;25451;51.960;6.250;2023-11-19T10:03:35;100693.94;;;12.39;88.08
39773;BME280;25451;51.960;6.250;2023-11-19T10:06:03;100688.41;;;12.39;88.08
39773;BME280;25451;51.960;6.250;2023-11-19T10:08:29;100678.69;;;12.37;88.43
39773;BME280;25451;51.960;6.250;2023-11-19T10:10:55;100685.94;;;12.43;88.45
39773;BME280;25451;51.960;6.250;2023-11-19T10:13:26;100688.22;;;12.46;88.06
39773;BME280;25451;51.960;6.250;2023-11-19T10:15:52;100680.78;;;12.52;88.19
39773;BME280;25451;51.960;6.250;2023-11-19T10:18:17;100670.28;;;12.54;88.14
39773;BME280;25451;51.960;6.250;2023-11-19T10:20:43;100676.97;;;12.58;88.12
39773;BME280;25451;51.960;6.250;2023-11-19T10:23:09;100682.81;;;12.61;87.98
39773;BME280;25451;51.960;6.250;2023-11-19T10:25:36;100668.47;;;12.64;87.82
39773;BME280;25451;51.960;6.250;2023-11-19T10:28:02;100671.25;;;12.69;87.99
39773;BME280;25451;51.960;6.250;2023-11-19T10:30:29;100680.72;;;12.73;88.09
39773;BME280;25451;51.960;6.250;2023-11-19T10:33:05;100680.22;;;12.76;87.98
39773;BME280;25451;51.960;6.250;2023-11-19T10:35:34;100681.59;;;12.79;87.75
39773;BME280;25451;51.960;6.250;2023-11-19T10:38:01;100681.94;;;12.82;87.94
39773;BME280;25451;51.960;6.250;2023-11-19T10:40:38;100677.53;;;12.86;87.78
39773;BME280;25451;51.960;6.250;2023-11-19T10:43:07;100683.63;;;12.88;87.89
39773;BME280;25451;51.960;6.250;2023-11-19T10:45:36;100663.72;;;12.91;87.93
39773;BME280;25451;51.960;6.250;2023-11-19T10:48:03;100658.75;;;12.93;87.57
39773;BME280;25451;51.960;6.250;2023-11-19T10:50:36;100654.03;;;12.94;87.62
39773;BME280;25451;51.960;6.250;2023-11-19T10:53:02;100667.09;;;12.98;87.64
39773;BME280;25451;51.960;6.250;2023-11-19T10:55:32;100673.22;;;13.00;87.73
39773;BME280;25451;51.960;6.250;2023-11-19T10:58:02;100664.63;;;13.02;87.52
39773;BME280;25451;51.960;6.250;2023-11-19T11:03:09;100661.69;;;13.08;87.43
39773;BME280;25451;51.960;6.250;2023-11-19T11:05:37;100654.78;;;13.11;87.47
39773;BME280;25451;51.960;6.250;2023-11-19T11:08:04;100657.84;;;13.14;87.66
39773;BME280;25451;51.960;6.250;2023-11-19T11:10:32;100647.34;;;13.16;87.25
39773;BME280;25451;51.960;6.250;2023-11-19T11:13:03;100647.91;;;13.18;87.58
39773;BME280;25451;51.960;6.250;2023-11-19T11:15:30;100653.47;;;13.23;87.65
39773;BME280;25451;51.960;6.250;2023-11-19T11:18:00;100653.78;;;13.27;87.57
39773;BME280;25451;51.960;6.250;2023-11-19T11:20:31;100649.38;;;13.31;87.64
39773;BME280;25451;51.960;6.250;2023-11-19T11:29:02;100649.47;;;13.46;87.43
39773;BME280;25451;51.960;6.250;2023-11-19T11:39:34;100655.91;;;13.57;87.10
39773;BME280;25451;51.960;6.250;2023-11-19T11:45:03;100644.28;;;13.60;87.13
39773;BME280;25451;51.960;6.250;2023-11-19T11:50:09;100645.16;;;13.65;86.95
39773;BME280;25451;51.960;6.250;2023-11-19T11:57:50;100641.53;;;13.65;86.91
39773;BME280;25451;51.960;6.250;2023-11-19T12:02:58;100635.47;;;13.68;86.66
39773;BME280;25451;51.960;6.250;2023-11-19T12:05:24;100622.16;;;13.70;86.57
39773;BME280;25451;51.960;6.250;2023-11-19T12:07:59;100629.06;;;13.72;86.58
39773;BME280;25451;51.960;6.250;2023-11-19T12:10:28;100625.50;;;13.72;86.58
39773;BME280;25451;51.960;6.250;2023-11-19T12:12:58;100617.19;;;13.72;86.64
39773;BME280;25451;51.960;6.250;2023-11-19T12:15:23;100603.84;;;13.69;86.54
39773;BME280;25451;51.960;6.250;2023-11-19T12:17:51;100607.72;;;13.68;86.40
39773;BME280;25451;51.960;6.250;2023-11-19T12:20:17;100608.53;;;13.68;86.52
39773;BME280;25451;51.960;6.250;2023-11-19T12:22:45;100601.34;;;13.67;86.48
39773;BME280;25451;51.960;6.250;2023-11-19T12:25:12;100608.25;;;13.65;86.53
39773;BME280;25451;51.960;6.250;2023-11-19T12:27:51;100604.91;;;13.63;86.34
39773;BME280;25451;51.960;6.250;2023-11-19T12:30:23;100616.00;;;13.63;86.42
39773;BME280;25451;51.960;6.250;2023-11-19T12:32:49;100599.09;;;13.59;86.48
39773;BME280;25451;51.960;6.250;2023-11-19T12:35:15;100616.25;;;13.56;86.63
39773;BME280;25451;51.960;6.250;2023-11-19T12:37:45;100614.31;;;13.57;86.47
39773;BME280;25451;51.960;6.250;2023-11-19T12:40:18;100612.91;;;13.54;86.60
39773;BME280;25451;51.960;6.250;2023-11-19T12:42:47;100620.66;;;13.52;86.59
39773;BME280;25451;51.960;6.250;2023-11-19T12:45:13;100622.06;;;13.50;86.69
39773;BME280;25451;51.960;6.250;2023-11-19T12:47:40;100607.63;;;13.48;86.53
39773;BME280;25451;51.960;6.250;2023-11-19T12:50:06;100609.84;;;13.46;86.58
39773;BME280;25451;51.960;6.250;2023-11-19T12:52:33;100619.81;;;13.47;86.53
39773;BME280;25451;51.960;6.250;2023-11-19T12:54:58;100606.22;;;13.45;86.68
39773;BME280;25451;51.960;6.250;2023-11-19T12:57:39;100603.16;;;13.47;86.66
39773;BME280;25451;51.960;6.250;2023-11-19T13:00:06;100612.84;;;13.44;86.65
39773;BME280;25451;51.960;6.250;2023-11-19T13:02:51;100619.25;;;13.45;86.79
39773;BME280;25451;51.960;6.250;2023-11-19T13:07:51;100613.13;;;13.43;86.87
39773;BME280;25451;51.960;6.250;2023-11-19T13:10:17;100623.13;;;13.44;86.43
39773;BME280;25451;51.960;6.250;2023-11-19T13:12:42;100624.78;;;13.45;86.75
39773;BME280;25451;51.960;6.250;2023-11-19T13:15:22;100620.09;;;13.45;86.80
39773;BME280;25451;51.960;6.250;2023-11-19T13:17:48;100613.69;;;13.45;86.50
39773;BME280;25451;51.960;6.250;2023-11-19T13:20:14;100623.13;;;13.44;86.79